Pos First Name Last Name YOB Country Start
Num
Time Swim T1 Bike T2 Run
1 Gabrielle Lemes 2002 BRA 10 01:09:38 00:13:59 00:00:24 00:35:51 00:00:26 00:18:58
2 Paula Vega 2002 ECU 20 01:09:50 00:12:59 00:00:20 00:36:15 00:00:23 00:19:52
3 Marcela Alvarez Saez 1999 CHI 2 01:10:00 00:12:54 00:00:17 00:36:06 00:00:28 00:20:16
4 Nazarena Salinas 2002 ARG 12 01:10:21 00:12:50 00:00:21 00:36:01 00:00:31 00:20:39
5 Giovanna Lacerda 2002 BRA 8 01:11:04 00:12:46 00:00:29 00:36:29 00:00:30 00:20:50
6 Nancy Lojano Tepan 2001 ECU 3 01:11:45 00:12:49 00:00:24 00:36:03 00:00:25 00:22:04
7 Camila Constanza Carrasco 2001 ARG 19 01:11:58 00:13:08 00:00:26 00:35:53 00:00:30 00:22:01
8 Ana Paula Brouwer De Koning 2001 ARG 6 01:12:48 00:13:59 00:00:23 00:35:51 00:00:26 00:22:09
9 Naomi Espinoza Guablocho 2002 PER 23 01:12:50 00:12:46 00:00:24 00:38:50 00:00:30 00:20:20
10 Daniela Moya Chamorro 2002 CHI 17 01:12:56 00:14:08 00:00:26 00:37:39 00:00:24 00:20:20
11 Angella Rodriguez Ramirez 1999 PER 4 01:13:52 00:12:51 00:00:23 00:37:02 00:00:31 00:23:04
12 Josefina Pilar Flores Clemo 2002 CHI 21 01:14:57 00:13:27 00:00:29 00:36:39 00:00:24 00:23:57
13 Maria Fernanda Barbosa Sanchez 2002 COL 24 01:15:00 00:14:00 00:00:24 00:37:53 00:00:25 00:22:18
14 Belen Pilara 1999 ARG 5 01:15:03 00:14:13 00:00:25 00:37:35 00:00:24 00:22:26
15 Francisca Paola Garrido Del Real 2002 CHI 11 01:15:49 00:14:15 00:00:27 00:37:32 00:00:25 00:23:11
16 Carmen Medina Porcile 2000 CHI 9 01:16:49 00:12:59 00:00:30 00:38:46 00:00:30 00:24:04
17 Estefania Diaz 2001 ARG 22 01:17:51 00:13:25 00:00:23 00:37:41 00:00:33 00:25:49
18 Sara Lutjens Oliva 2002 CHI 14 01:19:38 00:14:32 00:00:23 00:39:32 00:00:28 00:24:43
19 Laura Jineth Hurtado Valencia 2001 COL 18 01:21:28 00:14:32 00:00:24 00:41:14 00:00:24 00:24:54
DSQ Alice Tinelli 2002 BRA 15 DSQ 00:14:14 00:00:29 00:37:35 00:00:31 00:21:55
DNF Delfina Orlandini 2002 ARG 7 DNF 00:12:47 00:00:25 00:36:02 00:00:26 00:00:00
DNF Vitoria Sorbo 1999 BRA 1 DNF 00:12:24 00:00:24 01:01:33 00:00:00 00:00:00
DNF Antonia Meza 2002 CHI 16 DNF 00:13:31 00:00:25 00:00:00 00:00:00 00:00:00
Program notes:

Technical Delegate: Ricardo Neves/BRA. Head Referee: Carlos Fernando/ARG. Competition Jury: Ricardo Neves/BRA, Liber Garcia/URU, Ricardo Nuñez/PER.
Water Temperature: 22ºC Air temperature 21º C.
Wetsuits not allowed.
Distances: Swim 750 m (1 lap), Bike 20 km (4 laps), Run 5 km (2 laps).
Athletes #8 Lacerda/BRA, #12 Salinas/ARG and #15 Tinelli/BRA served a 10 seconds penalty during the run segment.